createdAt,value
2022-12-18T00:01:22.795Z,-2.61
2022-12-18T00:04:27.591Z,-2.60
2022-12-18T00:07:30.023Z,-2.64
2022-12-18T00:10:34.315Z,-2.62
2022-12-18T00:13:38.300Z,-2.63
2022-12-18T00:16:45.110Z,-2.67
2022-12-18T00:19:48.409Z,-2.68
2022-12-18T00:22:51.899Z,-2.77
2022-12-18T00:25:54.898Z,-2.86
2022-12-18T00:29:01.989Z,-2.89
2022-12-18T00:32:07.086Z,-2.97
2022-12-18T00:35:10.191Z,-3.03
2022-12-18T00:38:13.058Z,-3.06
2022-12-18T00:41:38.967Z,-3.12
2022-12-18T00:44:42.240Z,-3.14
2022-12-18T00:47:45.053Z,-3.08
2022-12-18T00:50:49.918Z,-2.98
2022-12-18T00:53:53.582Z,-2.95
2022-12-18T00:56:56.698Z,-2.92
2022-12-18T00:59:59.700Z,-2.90
2022-12-18T01:03:02.646Z,-2.88
2022-12-18T01:06:08.474Z,-2.83
2022-12-18T01:09:11.080Z,-2.87
2022-12-18T01:12:14.141Z,-2.91
2022-12-18T01:15:18.879Z,-2.93
2022-12-18T01:18:21.811Z,-2.93
2022-12-18T01:21:25.408Z,-2.95
2022-12-18T01:24:29.223Z,-2.98
2022-12-18T01:27:32.045Z,-2.97
2022-12-18T01:30:36.096Z,-3.01
2022-12-18T01:33:40.450Z,-3.00
2022-12-18T01:36:43.934Z,-3.01
2022-12-18T01:39:46.786Z,-3.01
2022-12-18T01:42:54.207Z,-3.00
2022-12-18T01:46:00.791Z,-3.00
2022-12-18T01:49:04.221Z,-3.00
2022-12-18T01:52:07.296Z,-3.00
2022-12-18T01:55:14.761Z,-3.04
2022-12-18T01:58:20.405Z,-3.07
2022-12-18T02:01:25.665Z,-3.08
2022-12-18T02:04:31.029Z,-3.12
2022-12-18T02:08:09.124Z,-3.11
2022-12-18T02:11:25.755Z,-3.13
2022-12-18T02:14:49.508Z,-3.26
2022-12-18T02:17:59.587Z,-3.29
2022-12-18T02:21:14.911Z,-3.32
2022-12-18T02:24:23.469Z,-3.32
2022-12-18T02:27:28.809Z,-3.34
2022-12-18T02:30:36.345Z,-3.33
2022-12-18T02:33:40.694Z,-3.36
2022-12-18T02:36:46.916Z,-3.34
2022-12-18T02:39:53.560Z,-3.29
2022-12-18T02:43:07.741Z,-3.29
2022-12-18T02:46:35.048Z,-3.30
2022-12-18T02:49:57.268Z,-3.31
2022-12-18T02:53:17.608Z,-3.30
2022-12-18T02:56:27.797Z,-3.35
2022-12-18T02:59:40.028Z,-3.33
2022-12-18T03:02:54.100Z,-3.33
2022-12-18T03:06:16.215Z,-3.35
2022-12-18T03:09:28.019Z,-3.40
2022-12-18T03:12:35.587Z,-3.44
2022-12-18T03:15:43.477Z,-3.56
2022-12-18T03:18:58.899Z,-3.67
2022-12-18T03:22:05.884Z,-3.76
2022-12-18T03:25:13.868Z,-3.80
2022-12-18T03:28:22.226Z,-3.85
2022-12-18T03:31:28.763Z,-3.86
2022-12-18T03:34:38.314Z,-3.86
2022-12-18T03:37:41.931Z,-3.88
2022-12-18T03:40:54.102Z,-3.95
2022-12-18T03:44:14.404Z,-3.97
2022-12-18T03:47:26.738Z,-3.94
2022-12-18T03:50:47.920Z,-3.98
2022-12-18T03:54:01.639Z,-4.05
2022-12-18T03:57:26.188Z,-4.10
2022-12-18T04:00:32.855Z,-4.23
2022-12-18T04:03:39.358Z,-4.27
2022-12-18T04:06:44.817Z,-4.33
2022-12-18T04:09:50.105Z,-4.35
2022-12-18T04:12:58.213Z,-4.37
2022-12-18T04:16:02.476Z,-4.33
2022-12-18T04:19:05.845Z,-4.38
2022-12-18T04:22:11.499Z,-4.38
2022-12-18T04:25:15.343Z,-4.43
2022-12-18T04:28:23.276Z,-4.47
2022-12-18T04:31:26.178Z,-4.50
2022-12-18T04:34:30.135Z,-4.54
2022-12-18T04:37:33.738Z,-4.67
2022-12-18T04:40:38.184Z,-4.67
2022-12-18T04:43:41.784Z,-4.68
2022-12-18T04:46:45.394Z,-4.67
2022-12-18T04:49:49.378Z,-4.62
2022-12-18T04:52:52.677Z,-4.61
2022-12-18T04:56:10.678Z,-4.64
2022-12-18T04:59:14.532Z,-4.69
2022-12-18T05:02:17.188Z,-4.73
2022-12-18T05:05:20.660Z,-4.76
2022-12-18T05:08:25.637Z,-4.79
2022-12-18T05:11:28.515Z,-4.80
2022-12-18T05:14:31.341Z,-4.88
2022-12-18T05:17:34.160Z,-4.90
2022-12-18T05:20:37.255Z,-5.02
2022-12-18T05:23:40.836Z,-4.98
2022-12-18T05:26:44.191Z,-5.01
2022-12-18T05:29:47.985Z,-5.06
2022-12-18T05:32:50.640Z,-5.11
2022-12-18T05:35:56.245Z,-5.11
2022-12-18T05:38:59.207Z,-5.14
2022-12-18T05:42:03.487Z,-5.13
2022-12-18T05:45:08.730Z,-5.16
2022-12-18T05:48:13.040Z,-5.21
2022-12-18T05:51:24.935Z,-5.20
2022-12-18T05:54:32.144Z,-5.26
2022-12-18T05:57:35.125Z,-5.26
2022-12-18T06:00:42.778Z,-5.28
2022-12-18T06:03:46.655Z,-5.32
2022-12-18T06:06:50.475Z,-5.32
2022-12-18T06:09:53.772Z,-5.39
2022-12-18T06:12:56.427Z,-5.39
2022-12-18T06:16:07.152Z,-5.42
2022-12-18T06:19:18.190Z,-5.42
2022-12-18T06:22:21.689Z,-5.43
2022-12-18T06:25:26.586Z,-5.43
2022-12-18T06:28:32.846Z,-5.44
2022-12-18T06:31:36.465Z,-5.44
2022-12-18T06:34:39.886Z,-5.43
2022-12-18T06:37:43.148Z,-5.36
2022-12-18T06:40:51.646Z,-5.40
2022-12-18T06:43:59.342Z,-5.39
2022-12-18T06:47:04.862Z,-5.28
2022-12-18T06:50:12.193Z,-5.27
2022-12-18T06:53:15.977Z,-5.18
2022-12-18T06:56:20.145Z,-4.56
2022-12-18T06:59:23.088Z,-3.88
2022-12-18T07:02:27.896Z,-3.33
2022-12-18T07:05:34.065Z,-2.73
2022-12-18T07:08:39.004Z,-2.19
2022-12-18T07:11:46.859Z,-1.60
2022-12-18T07:14:50.189Z,-1.04
2022-12-18T07:17:56.175Z,-0.92
2022-12-18T07:21:05.565Z,-0.60
2022-12-18T07:24:16.946Z,0.08
2022-12-18T07:27:21.169Z,0.50
2022-12-18T07:30:25.003Z,1.01
2022-12-18T07:33:32.896Z,1.38
2022-12-18T07:36:36.335Z,1.44
2022-12-18T07:39:50.063Z,1.28
2022-12-18T07:42:55.763Z,1.20
2022-12-18T07:46:01.072Z,1.21
2022-12-18T07:49:06.878Z,1.44
2022-12-18T07:52:10.676Z,1.71
2022-12-18T07:55:13.496Z,2.19
2022-12-18T07:58:24.799Z,2.63
2022-12-18T08:01:40.944Z,2.68
2022-12-18T08:04:55.910Z,2.81
2022-12-18T08:08:03.670Z,2.85
2022-12-18T08:11:10.015Z,2.87
2022-12-18T08:14:13.309Z,3.15
2022-12-18T08:17:17.561Z,3.25
2022-12-18T08:20:27.891Z,3.41
2022-12-18T08:23:32.012Z,3.32
2022-12-18T08:26:40.059Z,3.21
2022-12-18T08:29:46.478Z,2.91
2022-12-18T08:33:02.008Z,3.17
2022-12-18T08:36:06.626Z,3.57
2022-12-18T08:39:14.057Z,3.57
2022-12-18T08:42:37.530Z,3.36
2022-12-18T08:45:43.037Z,2.88
2022-12-18T08:48:57.183Z,2.90
2022-12-18T08:52:01.087Z,2.45
2022-12-18T08:55:04.535Z,2.34
2022-12-18T08:58:08.901Z,1.88
2022-12-18T09:01:17.525Z,1.49
2022-12-18T09:04:30.749Z,1.52
2022-12-18T09:07:38.434Z,1.55
2022-12-18T09:10:53.845Z,1.68
2022-12-18T09:13:58.956Z,2.30
2022-12-18T09:17:09.484Z,2.96
2022-12-18T09:20:15.022Z,3.15
2022-12-18T09:23:20.835Z,2.99
2022-12-18T09:26:36.893Z,3.04
2022-12-18T09:29:54.064Z,3.15
2022-12-18T09:33:04.370Z,2.99
2022-12-18T09:36:11.847Z,2.76
2022-12-18T09:39:16.143Z,2.62
2022-12-18T09:42:23.268Z,2.79
2022-12-18T09:45:30.247Z,2.55
2022-12-18T09:48:51.791Z,2.41
2022-12-18T09:52:09.716Z,2.04
2022-12-18T09:55:41.309Z,1.95
2022-12-18T09:59:04.790Z,1.62
2022-12-18T10:02:20.178Z,1.51
2022-12-18T10:05:49.163Z,1.89
2022-12-18T10:08:58.138Z,2.10
2022-12-18T10:12:24.881Z,1.91
2022-12-18T10:15:35.282Z,1.72
2022-12-18T10:19:00.853Z,1.84
2022-12-18T10:22:21.873Z,1.95
2022-12-18T10:25:37.880Z,1.84
2022-12-18T10:28:46.854Z,1.63
2022-12-18T10:31:51.156Z,1.51
2022-12-18T10:35:02.376Z,1.37
2022-12-18T10:38:18.022Z,1.21
2022-12-18T10:41:27.537Z,1.19
2022-12-18T10:44:38.776Z,1.12
2022-12-18T10:47:55.768Z,0.99
2022-12-18T10:51:12.107Z,0.97
2022-12-18T10:54:34.036Z,0.80
2022-12-18T10:57:42.804Z,0.94
2022-12-18T11:00:45.655Z,1.03
2022-12-18T11:04:01.663Z,1.04
2022-12-18T11:07:12.352Z,1.10
2022-12-18T11:10:20.586Z,1.06
2022-12-18T11:13:29.099Z,1.04
2022-12-18T11:17:03.035Z,1.19
2022-12-18T11:20:30.232Z,1.19
2022-12-18T11:23:40.994Z,1.23
2022-12-18T11:26:45.467Z,1.24
2022-12-18T11:29:56.810Z,1.31
2022-12-18T11:33:19.907Z,1.32
2022-12-18T11:36:26.882Z,1.31
2022-12-18T11:39:42.168Z,1.27
2022-12-18T11:43:09.928Z,1.40
2022-12-18T11:46:21.578Z,1.53
2022-12-18T11:49:36.281Z,1.58
2022-12-18T11:52:41.588Z,1.61
2022-12-18T11:56:25.861Z,1.49
2022-12-18T11:59:51.863Z,1.43
2022-12-18T12:02:59.161Z,1.50
2022-12-18T12:07:00.064Z,1.61
2022-12-18T12:10:40.035Z,1.64
2022-12-18T12:14:11.855Z,1.61
2022-12-18T12:17:41.779Z,1.54
2022-12-18T12:21:10.891Z,1.52
2022-12-18T12:24:57.762Z,1.52
2022-12-18T12:28:52.834Z,1.42
2022-12-18T12:32:10.505Z,1.35
2022-12-18T12:35:27.062Z,1.36
2022-12-18T12:38:51.425Z,1.32
2022-12-18T12:42:15.785Z,1.35
2022-12-18T12:45:32.823Z,1.36
2022-12-18T12:48:46.817Z,1.40
2022-12-18T12:52:18.899Z,1.32
2022-12-18T12:55:27.944Z,1.38
2022-12-18T12:58:37.911Z,1.37
2022-12-18T13:02:09.913Z,1.38
2022-12-18T13:05:21.981Z,1.31
2022-12-18T13:08:28.138Z,1.29
2022-12-18T13:12:06.919Z,1.25
2022-12-18T13:15:24.790Z,1.22
2022-12-18T13:18:30.214Z,1.24
2022-12-18T13:21:36.767Z,1.25
2022-12-18T13:24:44.511Z,1.30
2022-12-18T13:28:19.914Z,1.30
2022-12-18T13:31:42.352Z,1.25
2022-12-18T13:35:27.843Z,1.21
2022-12-18T13:38:45.035Z,1.19
2022-12-18T13:41:51.405Z,1.16
2022-12-18T13:45:00.000Z,1.06
2022-12-18T13:48:34.701Z,1.09
2022-12-18T13:51:45.638Z,1.10
2022-12-18T13:54:57.492Z,1.02
2022-12-18T13:58:07.126Z,0.99
2022-12-18T14:01:24.684Z,0.91
2022-12-18T14:04:39.795Z,0.87
2022-12-18T14:07:49.229Z,0.80
2022-12-18T14:11:13.818Z,0.74
2022-12-18T14:14:24.888Z,0.67
2022-12-18T14:17:35.012Z,0.54
2022-12-18T14:20:52.602Z,0.44
2022-12-18T14:24:06.028Z,0.35
2022-12-18T14:27:38.746Z,0.25
2022-12-18T14:30:58.917Z,0.21
2022-12-18T14:34:05.958Z,0.12
2022-12-18T14:37:16.870Z,-0.01
2022-12-18T14:40:21.979Z,-0.13
2022-12-18T14:43:30.063Z,-0.27
2022-12-18T14:46:52.736Z,-0.38
2022-12-18T14:53:33.040Z,-0.60
2022-12-18T14:56:46.848Z,-0.73
2022-12-18T14:59:54.336Z,-0.83
2022-12-18T15:03:01.257Z,-0.92
2022-12-18T15:06:27.577Z,-1.02
2022-12-18T15:10:21.834Z,-1.11
2022-12-18T15:13:26.251Z,-1.21
2022-12-18T15:16:30.490Z,-1.36
2022-12-18T15:19:41.724Z,-1.56
2022-12-18T15:22:52.171Z,-1.66
2022-12-18T15:26:10.009Z,-1.70
2022-12-18T15:29:31.830Z,-1.80
2022-12-18T15:32:50.812Z,-1.85
2022-12-18T15:36:06.568Z,-1.92
2022-12-18T15:39:14.243Z,-1.95
2022-12-18T15:42:36.619Z,-1.99
2022-12-18T15:45:56.080Z,-2.04
2022-12-18T15:49:02.477Z,-2.10
2022-12-18T15:52:08.316Z,-2.12
2022-12-18T15:55:37.003Z,-2.16
2022-12-18T16:02:16.984Z,-2.24
2022-12-18T16:05:21.672Z,-2.31
2022-12-18T16:08:43.084Z,-2.34
2022-12-18T16:11:51.757Z,-2.38
2022-12-18T16:14:59.837Z,-2.43
2022-12-18T16:18:13.329Z,-2.48
2022-12-18T16:21:17.222Z,-2.53
2022-12-18T16:24:37.241Z,-2.57
2022-12-18T16:27:46.722Z,-2.61
2022-12-18T16:30:54.171Z,-2.64
2022-12-18T16:34:40.785Z,-2.69
2022-12-18T16:41:37.712Z,-2.81
2022-12-18T16:44:45.759Z,-2.91
2022-12-18T16:47:52.892Z,-2.94
2022-12-18T16:51:03.967Z,-2.95
2022-12-18T16:54:27.767Z,-2.99
2022-12-18T16:57:31.893Z,-3.01
2022-12-18T17:00:43.000Z,-3.05
2022-12-18T17:03:56.660Z,-3.07
2022-12-18T17:07:13.046Z,-3.10
2022-12-18T17:10:17.322Z,-3.12
2022-12-18T17:13:25.560Z,-3.20
2022-12-18T17:16:29.851Z,-3.28
2022-12-18T17:19:40.754Z,-3.29
2022-12-18T17:22:43.984Z,-3.32
2022-12-18T17:25:57.875Z,-3.34
2022-12-18T17:29:06.044Z,-3.37
2022-12-18T17:32:12.748Z,-3.43
2022-12-18T17:35:16.446Z,-3.42
2022-12-18T17:38:23.991Z,-3.43
2022-12-18T17:41:33.240Z,-3.42
2022-12-18T17:44:37.645Z,-3.39
2022-12-18T17:47:40.860Z,-3.42
2022-12-18T17:50:47.668Z,-3.54
2022-12-18T17:53:57.385Z,-3.57
2022-12-18T17:57:14.672Z,-3.59
2022-12-18T18:00:21.929Z,-3.61
2022-12-18T18:03:27.124Z,-3.67
2022-12-18T18:06:38.996Z,-3.64
2022-12-18T18:09:48.109Z,-3.67
2022-12-18T18:13:14.254Z,-3.70
2022-12-18T18:16:22.977Z,-3.80
2022-12-18T18:19:32.925Z,-3.80
2022-12-18T18:22:40.867Z,-3.78
2022-12-18T18:25:53.634Z,-3.83
2022-12-18T18:29:07.867Z,-3.87
2022-12-18T18:32:19.758Z,-3.91
2022-12-18T18:35:52.399Z,-3.90
2022-12-18T18:39:06.685Z,-3.92
2022-12-18T18:42:19.663Z,-3.94
2022-12-18T18:45:27.972Z,-3.93
2022-12-18T18:48:39.749Z,-3.91
2022-12-18T18:51:51.822Z,-3.90
2022-12-18T18:55:12.046Z,-3.91
2022-12-18T18:58:23.329Z,-3.95
2022-12-18T19:01:39.816Z,-4.02
2022-12-18T19:04:51.972Z,-4.05
2022-12-18T19:07:57.761Z,-4.06
2022-12-18T19:11:31.745Z,-4.11
2022-12-18T19:14:39.451Z,-4.13
2022-12-18T19:17:47.437Z,-4.21
2022-12-18T19:21:05.629Z,-4.23
2022-12-18T19:24:14.123Z,-4.25
2022-12-18T19:27:20.948Z,-4.27
2022-12-18T19:30:26.528Z,-4.35
2022-12-18T19:33:43.676Z,-4.36
2022-12-18T19:37:00.150Z,-4.39
2022-12-18T19:40:19.788Z,-4.44
2022-12-18T19:43:30.708Z,-4.45
2022-12-18T19:46:34.602Z,-4.43
2022-12-18T19:49:44.347Z,-4.43
2022-12-18T19:52:57.010Z,-4.45
2022-12-18T19:56:14.887Z,-4.50
2022-12-18T19:59:19.482Z,-4.49
2022-12-18T20:02:26.866Z,-4.52
2022-12-18T20:05:35.800Z,-4.54
2022-12-18T20:08:44.160Z,-4.61
2022-12-18T20:11:55.858Z,-4.67
2022-12-18T20:15:05.701Z,-4.71
2022-12-18T20:18:10.900Z,-4.71
2022-12-18T20:21:14.860Z,-4.68
2022-12-18T20:24:37.752Z,-4.67
2022-12-18T20:27:44.892Z,-4.70
2022-12-18T20:31:03.045Z,-4.73
2022-12-18T20:34:09.492Z,-4.69
2022-12-18T20:37:31.718Z,-4.65
2022-12-18T20:40:36.649Z,-4.64
2022-12-18T20:43:44.700Z,-4.65
2022-12-18T20:46:58.048Z,-4.67
2022-12-18T20:50:16.700Z,-4.72
2022-12-18T20:53:19.757Z,-4.68
2022-12-18T20:56:25.188Z,-4.69
2022-12-18T20:59:37.683Z,-4.67
2022-12-18T21:02:43.828Z,-4.72
2022-12-18T21:05:46.866Z,-4.68
2022-12-18T21:08:50.849Z,-4.68
2022-12-18T21:12:20.954Z,-4.67
2022-12-18T21:15:32.885Z,-4.67
2022-12-18T21:18:57.949Z,-4.65
2022-12-18T21:22:02.725Z,-4.62
2022-12-18T21:25:05.872Z,-4.65
2022-12-18T21:28:09.443Z,-4.64
2022-12-18T21:31:13.879Z,-4.61
2022-12-18T21:34:25.610Z,-4.63
2022-12-18T21:37:30.525Z,-4.63
2022-12-18T21:40:34.918Z,-4.58
2022-12-18T21:44:02.817Z,-4.61
2022-12-18T21:47:22.188Z,-4.59
2022-12-18T21:50:34.749Z,-4.56
2022-12-18T21:53:43.063Z,-4.57
2022-12-18T21:56:58.670Z,-4.66
2022-12-18T22:00:02.271Z,-4.58
2022-12-18T22:03:18.771Z,-4.53
2022-12-18T22:06:25.790Z,-4.61
2022-12-18T22:09:37.654Z,-4.58
2022-12-18T22:12:54.867Z,-4.58
2022-12-18T22:15:59.213Z,-4.57
2022-12-18T22:19:05.723Z,-4.55
2022-12-18T22:22:08.397Z,-4.55
2022-12-18T22:25:16.124Z,-4.58
2022-12-18T22:28:39.663Z,-4.62
2022-12-18T22:31:45.891Z,-4.65
2022-12-18T22:34:49.196Z,-4.65
2022-12-18T22:38:08.621Z,-4.65
2022-12-18T22:41:11.752Z,-4.63
2022-12-18T22:44:15.007Z,-4.66
2022-12-18T22:47:30.068Z,-4.67
2022-12-18T22:50:34.894Z,-4.59
2022-12-18T22:53:39.005Z,-4.53
2022-12-18T22:56:51.646Z,-4.65
2022-12-18T22:59:57.888Z,-4.69
2022-12-18T23:03:07.430Z,-4.72
2022-12-18T23:06:10.587Z,-4.73
2022-12-18T23:09:20.853Z,-4.72
2022-12-18T23:12:24.012Z,-4.75
2022-12-18T23:15:28.157Z,-4.75
2022-12-18T23:18:37.466Z,-4.75
2022-12-18T23:21:42.519Z,-4.77
2022-12-18T23:24:46.641Z,-4.74
2022-12-18T23:27:50.863Z,-4.78
2022-12-18T23:30:54.077Z,-4.83
2022-12-18T23:33:59.297Z,-4.83
2022-12-18T23:37:03.912Z,-4.85
2022-12-18T23:40:07.813Z,-4.83
2022-12-18T23:43:10.435Z,-4.83
2022-12-18T23:46:26.090Z,-4.84
2022-12-18T23:49:28.771Z,-4.86
2022-12-18T23:52:31.930Z,-4.91
2022-12-18T23:55:40.915Z,-4.98
2022-12-18T23:58:45.451Z,-4.99
